Aérodrome :
LOGIN :

S'inscrire | Disclaimer

   EN    FR    IT 

 










Légende :    VFR   VFR Marginal   IFR   IFR Intensif   IFR Très Intensif
Visi : 
Plafond : 
>= 8 km
>= 3000ft
5 à 8 km
1000 à 3000 ft
1500m à 5 km
500 à 1000 ft
800 à 1500m
200 à 500 ft
< 800m
< 200 ft
Symboles :   Orages  Brouillard  Fortes neiges  Fortes précipitations  Vent > 20 kt
SIGMETs :   Divers  Orages  Givrage  Turbulence  Onde Orograph.  Cendres Volcan.







- Altitude de l'aérodrome : 49 ft
- Code IATA : GLZ


EHGR - Gilze-Rijen Airbase

DERNIER METAR :
  • 281729Z AUTO 29015KT 260V330 9000 -TSRA FEW023CB SCT050 BKN055 OVC062 15/09 Q1021 BLU 27005KT CAVOK TEMPO 5000 -TSRA SCT045CB SCT055

METARs EXPIRÉS :
  • 281725Z AUTO 29014KT 9999 -TSRA FEW028CB BKN055 BKN063 OVC068 16/09 Q1020 BLU
  • 281655Z AUTO 24005KT 9999 FEW059 BKN078 BKN086 18/07 Q1020 BLU
  • 281625Z AUTO 25007KT 210V270 9999 FEW300 19/06 Q1020 BLU
  • 281555Z AUTO 25007KT 230V290 9999 BKN300 20/06 Q1020 BLU
  • 281525Z AUTO 24009KT 210V280 9999 SCT310 20/05 Q1020 BLU
  • 281455Z AUTO 25008KT 230V300 9999 FEW060 19/06 Q1020 BLU

TAF TAF EHGR
Valide du 28 à 13h jusqu'au 29 à 01h UTC


281222Z 2813/2901 24006KT FEW040
PROB30
TEMPO 2818/2822 25012G25KT FEW030 SCT040CB
Pas de NOTAMs connus pour ce terrain.



MET'MAP, la Météo Aéronautique d'un coup d'oeil ! - Copyright ORBIFLY Décembre 2007 - Disclaimer

ORBIFLY MET'MAP TEAM :

Programmation & Développement : Alexandra Zaïnal
Conception & Développement : Baudouin d'Aumeries
Co-Programmation & Développement : Marc-Olivier Méhu
Soutien technique & logistique : Manuel Goepfert

Contact : metmap@orbifly.com




SOURCES & CREDITS :

   NOAA